sensor_id;sensor_type;location;lat;lon;timestamp;temperature;humidity
25248;DHT22;13191;47.472;11.214;2023-04-25T00:00:13;6.50;99.90
25248;DHT22;13191;47.472;11.214;2023-04-25T00:02:39;6.60;99.90
25248;DHT22;13191;47.472;11.214;2023-04-25T00:05:04;6.60;99.90
25248;DHT22;13191;47.472;11.214;2023-04-25T00:07:30;6.70;99.90
25248;DHT22;13191;47.472;11.214;2023-04-25T00:09:56;6.70;99.90
25248;DHT22;13191;47.472;11.214;2023-04-25T00:12:21;6.60;99.90
25248;DHT22;13191;47.472;11.214;2023-04-25T00:14:48;6.60;99.90
25248;DHT22;13191;47.472;11.214;2023-04-25T00:17:15;6.50;99.90
25248;DHT22;13191;47.472;11.214;2023-04-25T00:19:41;6.40;99.90
25248;DHT22;13191;47.472;11.214;2023-04-25T00:22:07;6.40;99.90
25248;DHT22;13191;47.472;11.214;2023-04-25T00:24:32;6.40;99.90
25248;DHT22;13191;47.472;11.214;2023-04-25T00:27:00;6.40;99.90
25248;DHT22;13191;47.472;11.214;2023-04-25T00:29:25;6.40;99.90
25248;DHT22;13191;47.472;11.214;2023-04-25T00:31:50;6.50;99.90
25248;DHT22;13191;47.472;11.214;2023-04-25T00:34:16;6.50;99.90
25248;DHT22;13191;47.472;11.214;2023-04-25T00:36:41;6.40;99.90
25248;DHT22;13191;47.472;11.214;2023-04-25T00:39:07;6.40;99.90
25248;DHT22;13191;47.472;11.214;2023-04-25T00:41:32;6.40;99.90
25248;DHT22;13191;47.472;11.214;2023-04-25T00:43:59;6.30;99.90
25248;DHT22;13191;47.472;11.214;2023-04-25T00:46:24;6.40;99.90
25248;DHT22;13191;47.472;11.214;2023-04-25T00:48:50;6.40;99.90
25248;DHT22;13191;47.472;11.214;2023-04-25T00:51:21;6.30;99.90
25248;DHT22;13191;47.472;11.214;2023-04-25T00:53:47;6.40;99.90
25248;DHT22;13191;47.472;11.214;2023-04-25T00:56:13;6.20;99.90
25248;DHT22;13191;47.472;11.214;2023-04-25T00:58:40;6.20;99.90
25248;DHT22;13191;47.472;11.214;2023-04-25T01:01:05;6.10;99.90
25248;DHT22;13191;47.472;11.214;2023-04-25T01:03:32;6.20;99.90
25248;DHT22;13191;47.472;11.214;2023-04-25T01:05:58;6.10;99.90
25248;DHT22;13191;47.472;11.214;2023-04-25T01:08:24;6.00;99.90
25248;DHT22;13191;47.472;11.214;2023-04-25T01:10:50;6.00;99.90
25248;DHT22;13191;47.472;11.214;2023-04-25T01:13:16;5.90;99.90
25248;DHT22;13191;47.472;11.214;2023-04-25T01:15:41;6.00;99.90
25248;DHT22;13191;47.472;11.214;2023-04-25T01:18:07;5.90;99.90
25248;DHT22;13191;47.472;11.214;2023-04-25T01:20:33;5.90;99.90
25248;DHT22;13191;47.472;11.214;2023-04-25T01:22:58;5.90;99.90
25248;DHT22;13191;47.472;11.214;2023-04-25T01:25:24;5.90;99.90
25248;DHT22;13191;47.472;11.214;2023-04-25T01:27:50;5.70;99.90
25248;DHT22;13191;47.472;11.214;2023-04-25T01:30:15;5.50;99.90
25248;DHT22;13191;47.472;11.214;2023-04-25T01:32:41;5.60;99.90
25248;DHT22;13191;47.472;11.214;2023-04-25T01:35:08;5.50;99.90
25248;DHT22;13191;47.472;11.214;2023-04-25T01:37:35;5.60;99.90
25248;DHT22;13191;47.472;11.214;2023-04-25T01:40:01;5.60;99.90
25248;DHT22;13191;47.472;11.214;2023-04-25T01:42:26;5.60;99.90
25248;DHT22;13191;47.472;11.214;2023-04-25T01:44:52;5.60;99.90
25248;DHT22;13191;47.472;11.214;2023-04-25T01:47:18;5.60;99.90
25248;DHT22;13191;47.472;11.214;2023-04-25T01:49:43;5.60;99.90
25248;DHT22;13191;47.472;11.214;2023-04-25T01:52:09;5.50;99.90
25248;DHT22;13191;47.472;11.214;2023-04-25T01:54:34;5.60;99.90
25248;DHT22;13191;47.472;11.214;2023-04-25T01:57:00;5.60;99.90
25248;DHT22;13191;47.472;11.214;2023-04-25T01:59:25;5.70;99.90
25248;DHT22;13191;47.472;11.214;2023-04-25T02:01:51;5.70;99.90
25248;DHT22;13191;47.472;11.214;2023-04-25T02:04:16;5.70;99.90
25248;DHT22;13191;47.472;11.214;2023-04-25T02:06:42;5.70;99.90
25248;DHT22;13191;47.472;11.214;2023-04-25T02:09:07;5.70;99.90
25248;DHT22;13191;47.472;11.214;2023-04-25T02:11:32;5.70;99.90
25248;DHT22;13191;47.472;11.214;2023-04-25T02:13:58;5.80;99.90
25248;DHT22;13191;47.472;11.214;2023-04-25T02:16:23;5.80;99.90
25248;DHT22;13191;47.472;11.214;2023-04-25T02:18:50;5.80;99.90
25248;DHT22;13191;47.472;11.214;2023-04-25T02:21:18;5.80;99.90
25248;DHT22;13191;47.472;11.214;2023-04-25T02:23:43;5.80;99.90
25248;DHT22;13191;47.472;11.214;2023-04-25T02:26:10;5.80;99.90
25248;DHT22;13191;47.472;11.214;2023-04-25T02:28:38;5.80;99.90
25248;DHT22;13191;47.472;11.214;2023-04-25T02:31:03;5.70;99.90
25248;DHT22;13191;47.472;11.214;2023-04-25T02:33:29;5.70;99.90
25248;DHT22;13191;47.472;11.214;2023-04-25T02:35:54;5.70;99.90
25248;DHT22;13191;47.472;11.214;2023-04-25T02:38:20;5.80;99.90
25248;DHT22;13191;47.472;11.214;2023-04-25T02:40:45;5.80;99.90
25248;DHT22;13191;47.472;11.214;2023-04-25T02:43:11;5.70;99.90
25248;DHT22;13191;47.472;11.214;2023-04-25T02:45:36;5.60;99.90
25248;DHT22;13191;47.472;11.214;2023-04-25T02:48:03;5.50;99.90
25248;DHT22;13191;47.472;11.214;2023-04-25T02:50:28;5.50;99.90
25248;DHT22;13191;47.472;11.214;2023-04-25T02:52:54;5.40;99.90
25248;DHT22;13191;47.472;11.214;2023-04-25T02:55:19;5.40;99.90
25248;DHT22;13191;47.472;11.214;2023-04-25T02:57:45;5.40;99.90
25248;DHT22;13191;47.472;11.214;2023-04-25T03:00:11;5.50;99.90
25248;DHT22;13191;47.472;11.214;2023-04-25T03:02:37;5.40;99.90
25248;DHT22;13191;47.472;11.214;2023-04-25T03:05:02;5.40;99.90
25248;DHT22;13191;47.472;11.214;2023-04-25T03:07:28;5.40;99.90
25248;DHT22;13191;47.472;11.214;2023-04-25T03:09:53;5.50;99.90
25248;DHT22;13191;47.472;11.214;2023-04-25T03:12:20;5.50;99.90
25248;DHT22;13191;47.472;11.214;2023-04-25T03:14:46;5.50;99.90
25248;DHT22;13191;47.472;11.214;2023-04-25T03:17:11;5.40;99.90
25248;DHT22;13191;47.472;11.214;2023-04-25T03:19:37;5.40;99.90
25248;DHT22;13191;47.472;11.214;2023-04-25T03:22:02;5.40;99.90
25248;DHT22;13191;47.472;11.214;2023-04-25T03:24:27;5.30;99.90
25248;DHT22;13191;47.472;11.214;2023-04-25T03:26:53;5.20;99.90
25248;DHT22;13191;47.472;11.214;2023-04-25T03:29:18;5.10;99.90
25248;DHT22;13191;47.472;11.214;2023-04-25T03:31:45;5.20;99.90
25248;DHT22;13191;47.472;11.214;2023-04-25T03:34:10;5.20;99.90
25248;DHT22;13191;47.472;11.214;2023-04-25T03:36:36;5.30;99.90
25248;DHT22;13191;47.472;11.214;2023-04-25T03:39:01;5.30;99.90
25248;DHT22;13191;47.472;11.214;2023-04-25T03:41:27;5.30;99.90
25248;DHT22;13191;47.472;11.214;2023-04-25T03:43:53;5.40;99.90
25248;DHT22;13191;47.472;11.214;2023-04-25T03:46:18;5.40;99.90
25248;DHT22;13191;47.472;11.214;2023-04-25T03:48:44;5.40;99.90
25248;DHT22;13191;47.472;11.214;2023-04-25T03:51:09;5.40;99.90
25248;DHT22;13191;47.472;11.214;2023-04-25T03:53:35;5.40;99.90
25248;DHT22;13191;47.472;11.214;2023-04-25T03:56:00;5.40;99.90
25248;DHT22;13191;47.472;11.214;2023-04-25T03:58:26;5.40;99.90
25248;DHT22;13191;47.472;11.214;2023-04-25T04:00:51;5.50;99.90
25248;DHT22;13191;47.472;11.214;2023-04-25T04:03:17;5.40;99.90
25248;DHT22;13191;47.472;11.214;2023-04-25T04:05:42;5.40;99.90
25248;DHT22;13191;47.472;11.214;2023-04-25T04:08:08;5.40;99.90
25248;DHT22;13191;47.472;11.214;2023-04-25T04:10:33;5.30;99.90
25248;DHT22;13191;47.472;11.214;2023-04-25T04:12:59;5.40;99.90
25248;DHT22;13191;47.472;11.214;2023-04-25T04:15:24;5.40;99.90
25248;DHT22;13191;47.472;11.214;2023-04-25T04:17:49;5.40;99.90
25248;DHT22;13191;47.472;11.214;2023-04-25T04:20:15;5.40;99.90
25248;DHT22;13191;47.472;11.214;2023-04-25T04:22:41;5.40;99.90
25248;DHT22;13191;47.472;11.214;2023-04-25T04:25:06;5.40;99.90
25248;DHT22;13191;47.472;11.214;2023-04-25T04:27:32;5.30;99.90
25248;DHT22;13191;47.472;11.214;2023-04-25T04:29:57;5.30;99.90
25248;DHT22;13191;47.472;11.214;2023-04-25T04:32:23;5.20;99.90
25248;DHT22;13191;47.472;11.214;2023-04-25T04:34:50;5.20;99.90
25248;DHT22;13191;47.472;11.214;2023-04-25T04:37:16;5.10;99.90
25248;DHT22;13191;47.472;11.214;2023-04-25T04:39:41;5.10;99.90
25248;DHT22;13191;47.472;11.214;2023-04-25T04:42:07;5.00;99.90
25248;DHT22;13191;47.472;11.214;2023-04-25T04:44:33;4.90;99.90
25248;DHT22;13191;47.472;11.214;2023-04-25T04:49:25;4.70;99.90
25248;DHT22;13191;47.472;11.214;2023-04-25T04:51:51;4.60;99.90
25248;DHT22;13191;47.472;11.214;2023-04-25T04:54:17;4.60;99.90
25248;DHT22;13191;47.472;11.214;2023-04-25T04:56:42;4.50;99.90
25248;DHT22;13191;47.472;11.214;2023-04-25T04:59:08;4.50;99.90
25248;DHT22;13191;47.472;11.214;2023-04-25T05:01:34;4.50;99.90
25248;DHT22;13191;47.472;11.214;2023-04-25T05:04:02;4.50;99.90
25248;DHT22;13191;47.472;11.214;2023-04-25T05:06:28;4.50;99.90
25248;DHT22;13191;47.472;11.214;2023-04-25T05:08:55;4.50;99.90
25248;DHT22;13191;47.472;11.214;2023-04-25T05:11:21;4.50;99.90
25248;DHT22;13191;47.472;11.214;2023-04-25T05:13:46;4.50;99.90
25248;DHT22;13191;47.472;11.214;2023-04-25T05:16:13;4.60;99.90
25248;DHT22;13191;47.472;11.214;2023-04-25T05:18:38;4.60;99.90
25248;DHT22;13191;47.472;11.214;2023-04-25T05:21:04;4.50;99.90
25248;DHT22;13191;47.472;11.214;2023-04-25T05:23:30;4.60;99.90
25248;DHT22;13191;47.472;11.214;2023-04-25T05:25:56;4.50;99.90
25248;DHT22;13191;47.472;11.214;2023-04-25T05:28:21;4.60;99.90
25248;DHT22;13191;47.472;11.214;2023-04-25T05:30:47;4.70;99.90
25248;DHT22;13191;47.472;11.214;2023-04-25T05:33:12;4.80;99.90
25248;DHT22;13191;47.472;11.214;2023-04-25T05:35:38;4.80;99.90
25248;DHT22;13191;47.472;11.214;2023-04-25T05:38:03;4.80;99.90
25248;DHT22;13191;47.472;11.214;2023-04-25T05:40:28;4.90;99.90
25248;DHT22;13191;47.472;11.214;2023-04-25T05:42:54;5.00;99.90
25248;DHT22;13191;47.472;11.214;2023-04-25T05:45:19;5.00;99.90
25248;DHT22;13191;47.472;11.214;2023-04-25T05:47:45;5.10;99.90
25248;DHT22;13191;47.472;11.214;2023-04-25T05:50:10;5.10;99.90
25248;DHT22;13191;47.472;11.214;2023-04-25T05:52:36;5.10;99.90
25248;DHT22;13191;47.472;11.214;2023-04-25T05:55:01;5.10;99.90
25248;DHT22;13191;47.472;11.214;2023-04-25T05:57:27;5.10;99.90
25248;DHT22;13191;47.472;11.214;2023-04-25T05:59:53;5.20;99.90
25248;DHT22;13191;47.472;11.214;2023-04-25T06:02:19;5.20;99.90
25248;DHT22;13191;47.472;11.214;2023-04-25T06:04:45;5.20;99.90
25248;DHT22;13191;47.472;11.214;2023-04-25T06:07:11;5.20;99.90
25248;DHT22;13191;47.472;11.214;2023-04-25T06:09:36;5.20;99.90
25248;DHT22;13191;47.472;11.214;2023-04-25T06:12:04;5.30;99.90
25248;DHT22;13191;47.472;11.214;2023-04-25T06:14:30;5.30;99.90
25248;DHT22;13191;47.472;11.214;2023-04-25T06:16:55;5.40;99.90
25248;DHT22;13191;47.472;11.214;2023-04-25T06:19:21;5.40;99.90
25248;DHT22;13191;47.472;11.214;2023-04-25T06:21:46;5.40;99.90
25248;DHT22;13191;47.472;11.214;2023-04-25T06:24:12;5.50;99.90
25248;DHT22;13191;47.472;11.214;2023-04-25T06:26:37;5.50;99.90
25248;DHT22;13191;47.472;11.214;2023-04-25T06:29:03;5.60;99.90
25248;DHT22;13191;47.472;11.214;2023-04-25T06:31:28;5.60;99.90
25248;DHT22;13191;47.472;11.214;2023-04-25T06:33:54;5.60;99.90
25248;DHT22;13191;47.472;11.214;2023-04-25T06:36:20;5.70;99.90
25248;DHT22;13191;47.472;11.214;2023-04-25T06:38:53;5.70;99.90
25248;DHT22;13191;47.472;11.214;2023-04-25T06:41:18;5.80;99.90
25248;DHT22;13191;47.472;11.214;2023-04-25T06:43:44;5.90;99.90
25248;DHT22;13191;47.472;11.214;2023-04-25T06:46:09;5.90;99.90
25248;DHT22;13191;47.472;11.214;2023-04-25T06:48:35;6.00;99.90
25248;DHT22;13191;47.472;11.214;2023-04-25T06:51:00;6.00;99.90
25248;DHT22;13191;47.472;11.214;2023-04-25T06:53:26;6.10;99.90
25248;DHT22;13191;47.472;11.214;2023-04-25T06:55:51;6.10;99.90
25248;DHT22;13191;47.472;11.214;2023-04-25T06:58:17;6.10;99.90
25248;DHT22;13191;47.472;11.214;2023-04-25T07:00:42;6.10;99.90
25248;DHT22;13191;47.472;11.214;2023-04-25T07:03:09;6.20;99.90
25248;DHT22;13191;47.472;11.214;2023-04-25T07:05:35;6.30;99.90
25248;DHT22;13191;47.472;11.214;2023-04-25T07:08:00;6.30;99.90
25248;DHT22;13191;47.472;11.214;2023-04-25T07:10:27;6.40;99.90
25248;DHT22;13191;47.472;11.214;2023-04-25T07:12:52;6.40;99.90
25248;DHT22;13191;47.472;11.214;2023-04-25T07:15:18;6.30;99.90
25248;DHT22;13191;47.472;11.214;2023-04-25T07:17:43;6.30;99.90
25248;DHT22;13191;47.472;11.214;2023-04-25T07:20:09;6.30;99.90
25248;DHT22;13191;47.472;11.214;2023-04-25T07:22:35;6.40;99.90
25248;DHT22;13191;47.472;11.214;2023-04-25T07:25:00;6.50;99.90
25248;DHT22;13191;47.472;11.214;2023-04-25T07:27:26;6.50;99.90
25248;DHT22;13191;47.472;11.214;2023-04-25T07:29:51;6.60;99.90
25248;DHT22;13191;47.472;11.214;2023-04-25T07:32:17;6.60;99.90
25248;DHT22;13191;47.472;11.214;2023-04-25T07:34:42;6.70;99.90
25248;DHT22;13191;47.472;11.214;2023-04-25T07:37:08;6.70;99.90
25248;DHT22;13191;47.472;11.214;2023-04-25T07:39:33;6.80;99.90
25248;DHT22;13191;47.472;11.214;2023-04-25T07:41:59;6.80;99.90
25248;DHT22;13191;47.472;11.214;2023-04-25T07:44:25;6.70;99.90
25248;DHT22;13191;47.472;11.214;2023-04-25T07:46:51;6.70;99.90
25248;DHT22;13191;47.472;11.214;2023-04-25T07:49:16;6.80;99.90
25248;DHT22;13191;47.472;11.214;2023-04-25T07:51:42;6.80;99.90
25248;DHT22;13191;47.472;11.214;2023-04-25T07:54:09;6.70;99.90
25248;DHT22;13191;47.472;11.214;2023-04-25T07:56:34;6.70;99.90
25248;DHT22;13191;47.472;11.214;2023-04-25T07:59:00;6.70;99.90
25248;DHT22;13191;47.472;11.214;2023-04-25T08:01:25;6.80;99.90
25248;DHT22;13191;47.472;11.214;2023-04-25T08:03:52;6.80;99.90
25248;DHT22;13191;47.472;11.214;2023-04-25T08:06:17;6.90;99.90
25248;DHT22;13191;47.472;11.214;2023-04-25T08:08:43;7.00;99.90
25248;DHT22;13191;47.472;11.214;2023-04-25T08:11:09;7.00;99.90
25248;DHT22;13191;47.472;11.214;2023-04-25T08:13:34;7.00;99.90
25248;DHT22;13191;47.472;11.214;2023-04-25T08:16:00;7.10;99.90
25248;DHT22;13191;47.472;11.214;2023-04-25T08:18:25;7.20;99.90
25248;DHT22;13191;47.472;11.214;2023-04-25T08:20:51;7.20;99.90
25248;DHT22;13191;47.472;11.214;2023-04-25T08:23:17;7.30;99.90
25248;DHT22;13191;47.472;11.214;2023-04-25T08:25:42;7.40;99.90
25248;DHT22;13191;47.472;11.214;2023-04-25T08:28:08;7.40;99.90
25248;DHT22;13191;47.472;11.214;2023-04-25T08:30:33;7.30;99.90
25248;DHT22;13191;47.472;11.214;2023-04-25T08:32:59;7.30;99.90
25248;DHT22;13191;47.472;11.214;2023-04-25T08:35:24;7.40;99.90
25248;DHT22;13191;47.472;11.214;2023-04-25T08:37:50;7.40;99.90
25248;DHT22;13191;47.472;11.214;2023-04-25T08:40:16;7.40;99.90
25248;DHT22;13191;47.472;11.214;2023-04-25T08:42:42;7.40;99.90
25248;DHT22;13191;47.472;11.214;2023-04-25T08:45:08;7.30;99.90
25248;DHT22;13191;47.472;11.214;2023-04-25T08:47:34;7.30;99.90
25248;DHT22;13191;47.472;11.214;2023-04-25T08:50:00;7.40;99.90
25248;DHT22;13191;47.472;11.214;2023-04-25T08:52:27;7.50;99.90
25248;DHT22;13191;47.472;11.214;2023-04-25T08:54:55;7.60;99.90
25248;DHT22;13191;47.472;11.214;2023-04-25T08:57:22;7.70;99.90
25248;DHT22;13191;47.472;11.214;2023-04-25T08:59:47;7.80;99.90
25248;DHT22;13191;47.472;11.214;2023-04-25T09:02:15;7.70;99.90
25248;DHT22;13191;47.472;11.214;2023-04-25T09:04:43;7.70;99.90
25248;DHT22;13191;47.472;11.214;2023-04-25T09:07:08;7.80;99.90
25248;DHT22;13191;47.472;11.214;2023-04-25T09:09:34;7.80;99.90
25248;DHT22;13191;47.472;11.214;2023-04-25T09:12:00;7.90;99.90
25248;DHT22;13191;47.472;11.214;2023-04-25T09:14:26;8.00;99.90
25248;DHT22;13191;47.472;11.214;2023-04-25T09:19:28;8.10;99.90
25248;DHT22;13191;47.472;11.214;2023-04-25T09:21:54;8.00;99.90
25248;DHT22;13191;47.472;11.214;2023-04-25T09:24:30;8.00;99.90
25248;DHT22;13191;47.472;11.214;2023-04-25T09:26:56;8.00;99.90
25248;DHT22;13191;47.472;11.214;2023-04-25T09:29:28;8.10;99.90
25248;DHT22;13191;47.472;11.214;2023-04-25T09:31:57;8.20;99.90
25248;DHT22;13191;47.472;11.214;2023-04-25T09:34:39;8.30;99.90
25248;DHT22;13191;47.472;11.214;2023-04-25T09:37:05;8.40;99.90
25248;DHT22;13191;47.472;11.214;2023-04-25T09:39:32;8.30;99.90
25248;DHT22;13191;47.472;11.214;2023-04-25T09:41:58;8.20;99.90
25248;DHT22;13191;47.472;11.214;2023-04-25T09:44:24;8.30;99.90
25248;DHT22;13191;47.472;11.214;2023-04-25T09:46:50;8.30;99.90
25248;DHT22;13191;47.472;11.214;2023-04-25T09:49:21;8.30;99.90
25248;DHT22;13191;47.472;11.214;2023-04-25T09:51:53;8.30;99.90
25248;DHT22;13191;47.472;11.214;2023-04-25T09:54:19;8.30;99.90
25248;DHT22;13191;47.472;11.214;2023-04-25T09:56:45;8.40;99.90
25248;DHT22;13191;47.472;11.214;2023-04-25T09:59:12;8.50;99.90
25248;DHT22;13191;47.472;11.214;2023-04-25T10:01:39;8.70;99.90
25248;DHT22;13191;47.472;11.214;2023-04-25T10:04:06;8.70;99.90
25248;DHT22;13191;47.472;11.214;2023-04-25T10:06:34;8.70;99.90
25248;DHT22;13191;47.472;11.214;2023-04-25T10:09:00;8.80;99.90
25248;DHT22;13191;47.472;11.214;2023-04-25T10:11:29;8.90;99.90
25248;DHT22;13191;47.472;11.214;2023-04-25T10:13:56;9.00;99.90
25248;DHT22;13191;47.472;11.214;2023-04-25T10:16:24;9.10;99.90
25248;DHT22;13191;47.472;11.214;2023-04-25T10:18:49;9.10;99.90
25248;DHT22;13191;47.472;11.214;2023-04-25T10:21:15;9.10;99.90
25248;DHT22;13191;47.472;11.214;2023-04-25T10:23:41;9.10;99.90
25248;DHT22;13191;47.472;11.214;2023-04-25T10:26:07;9.00;99.90
25248;DHT22;13191;47.472;11.214;2023-04-25T10:28:57;8.90;99.90
25248;DHT22;13191;47.472;11.214;2023-04-25T10:31:26;8.90;99.90
25248;DHT22;13191;47.472;11.214;2023-04-25T10:33:52;9.00;99.90
25248;DHT22;13191;47.472;11.214;2023-04-25T10:36:19;9.20;99.90
25248;DHT22;13191;47.472;11.214;2023-04-25T10:38:53;9.20;99.90
25248;DHT22;13191;47.472;11.214;2023-04-25T10:41:20;9.30;99.90
25248;DHT22;13191;47.472;11.214;2023-04-25T10:43:46;9.30;99.90
25248;DHT22;13191;47.472;11.214;2023-04-25T10:48:38;9.50;99.90
25248;DHT22;13191;47.472;11.214;2023-04-25T10:51:15;9.50;99.90
25248;DHT22;13191;47.472;11.214;2023-04-25T10:53:40;9.50;99.90
25248;DHT22;13191;47.472;11.214;2023-04-25T10:56:19;9.30;99.90
25248;DHT22;13191;47.472;11.214;2023-04-25T10:58:48;9.30;99.90
25248;DHT22;13191;47.472;11.214;2023-04-25T11:01:13;9.20;99.90
25248;DHT22;13191;47.472;11.214;2023-04-25T11:03:40;9.10;99.90
25248;DHT22;13191;47.472;11.214;2023-04-25T11:06:10;8.80;99.90
25248;DHT22;13191;47.472;11.214;2023-04-25T11:08:43;8.70;99.90
25248;DHT22;13191;47.472;11.214;2023-04-25T11:11:14;8.50;99.90
25248;DHT22;13191;47.472;11.214;2023-04-25T11:13:39;8.30;99.90
25248;DHT22;13191;47.472;11.214;2023-04-25T11:16:07;8.30;99.90
25248;DHT22;13191;47.472;11.214;2023-04-25T11:18:32;8.30;99.90
25248;DHT22;13191;47.472;11.214;2023-04-25T11:20:59;7.90;99.90
25248;DHT22;13191;47.472;11.214;2023-04-25T11:23:25;7.80;99.90
25248;DHT22;13191;47.472;11.214;2023-04-25T11:25:52;7.80;99.90
25248;DHT22;13191;47.472;11.214;2023-04-25T11:28:21;7.90;99.90
25248;DHT22;13191;47.472;11.214;2023-04-25T11:30:50;7.90;99.90
25248;DHT22;13191;47.472;11.214;2023-04-25T11:33:16;7.90;99.90
25248;DHT22;13191;47.472;11.214;2023-04-25T11:35:42;7.90;99.90
25248;DHT22;13191;47.472;11.214;2023-04-25T11:38:07;8.00;99.90
25248;DHT22;13191;47.472;11.214;2023-04-25T11:40:35;8.10;99.90
25248;DHT22;13191;47.472;11.214;2023-04-25T11:43:00;8.20;99.90
25248;DHT22;13191;47.472;11.214;2023-04-25T11:45:26;8.40;99.90
25248;DHT22;13191;47.472;11.214;2023-04-25T11:47:52;8.60;99.90
25248;DHT22;13191;47.472;11.214;2023-04-25T11:50:18;8.70;99.90
25248;DHT22;13191;47.472;11.214;2023-04-25T11:52:44;8.70;99.90
25248;DHT22;13191;47.472;11.214;2023-04-25T11:55:17;8.90;99.90
25248;DHT22;13191;47.472;11.214;2023-04-25T11:57:44;9.00;99.90
25248;DHT22;13191;47.472;11.214;2023-04-25T12:02:36;9.30;99.90
25248;DHT22;13191;47.472;11.214;2023-04-25T12:05:02;9.50;99.90
25248;DHT22;13191;47.472;11.214;2023-04-25T12:07:29;9.70;99.90
25248;DHT22;13191;47.472;11.214;2023-04-25T12:09:55;9.70;99.90
25248;DHT22;13191;47.472;11.214;2023-04-25T12:12:21;9.70;99.90
25248;DHT22;13191;47.472;11.214;2023-04-25T12:14:47;9.90;99.90
25248;DHT22;13191;47.472;11.214;2023-04-25T12:17:16;10.10;99.90
25248;DHT22;13191;47.472;11.214;2023-04-25T12:19:42;10.20;99.90
25248;DHT22;13191;47.472;11.214;2023-04-25T12:22:23;10.20;99.90
25248;DHT22;13191;47.472;11.214;2023-04-25T12:24:48;10.20;99.90
25248;DHT22;13191;47.472;11.214;2023-04-25T12:27:16;10.40;99.90
25248;DHT22;13191;47.472;11.214;2023-04-25T12:29:53;10.20;99.90
25248;DHT22;13191;47.472;11.214;2023-04-25T12:32:23;10.10;99.90
25248;DHT22;13191;47.472;11.214;2023-04-25T12:34:50;10.00;99.90
25248;DHT22;13191;47.472;11.214;2023-04-25T12:37:15;10.00;99.90
25248;DHT22;13191;47.472;11.214;2023-04-25T12:39:41;10.00;99.90
25248;DHT22;13191;47.472;11.214;2023-04-25T12:42:07;10.10;99.90
25248;DHT22;13191;47.472;11.214;2023-04-25T12:44:38;9.90;99.90
25248;DHT22;13191;47.472;11.214;2023-04-25T12:47:04;9.80;99.90
25248;DHT22;13191;47.472;11.214;2023-04-25T12:49:30;9.90;99.90
25248;DHT22;13191;47.472;11.214;2023-04-25T12:51:56;9.90;99.90
25248;DHT22;13191;47.472;11.214;2023-04-25T12:54:22;10.00;99.90
25248;DHT22;13191;47.472;11.214;2023-04-25T12:56:48;10.10;99.90
25248;DHT22;13191;47.472;11.214;2023-04-25T12:59:18;10.00;99.90
25248;DHT22;13191;47.472;11.214;2023-04-25T13:01:45;9.90;99.90
25248;DHT22;13191;47.472;11.214;2023-04-25T13:04:11;10.00;99.90
25248;DHT22;13191;47.472;11.214;2023-04-25T13:06:37;10.00;99.90
25248;DHT22;13191;47.472;11.214;2023-04-25T13:09:03;10.10;99.90
25248;DHT22;13191;47.472;11.214;2023-04-25T13:11:28;10.00;99.90
25248;DHT22;13191;47.472;11.214;2023-04-25T13:13:54;9.60;99.90
25248;DHT22;13191;47.472;11.214;2023-04-25T13:16:20;9.60;99.90
25248;DHT22;13191;47.472;11.214;2023-04-25T13:18:48;9.50;99.90
25248;DHT22;13191;47.472;11.214;2023-04-25T13:21:14;9.80;99.90
25248;DHT22;13191;47.472;11.214;2023-04-25T13:23:39;10.00;99.90
25248;DHT22;13191;47.472;11.214;2023-04-25T13:26:05;10.00;99.90
25248;DHT22;13191;47.472;11.214;2023-04-25T13:28:31;10.00;99.90
25248;DHT22;13191;47.472;11.214;2023-04-25T13:30:56;10.00;99.90
25248;DHT22;13191;47.472;11.214;2023-04-25T13:33:24;10.20;99.90
25248;DHT22;13191;47.472;11.214;2023-04-25T13:35:49;10.40;99.90
25248;DHT22;13191;47.472;11.214;2023-04-25T13:38:24;10.60;99.90
25248;DHT22;13191;47.472;11.214;2023-04-25T13:40:50;10.90;99.90
25248;DHT22;13191;47.472;11.214;2023-04-25T13:43:20;10.80;99.90
25248;DHT22;13191;47.472;11.214;2023-04-25T13:45:49;10.90;99.90
25248;DHT22;13191;47.472;11.214;2023-04-25T13:48:15;10.60;99.90
25248;DHT22;13191;47.472;11.214;2023-04-25T13:50:40;10.20;99.90
25248;DHT22;13191;47.472;11.214;2023-04-25T13:53:07;9.50;99.90
25248;DHT22;13191;47.472;11.214;2023-04-25T13:55:33;9.20;99.90
25248;DHT22;13191;47.472;11.214;2023-04-25T14:00:32;8.50;99.90
25248;DHT22;13191;47.472;11.214;2023-04-25T14:02:58;8.30;99.90
25248;DHT22;13191;47.472;11.214;2023-04-25T14:05:23;8.00;99.90
25248;DHT22;13191;47.472;11.214;2023-04-25T14:07:49;7.90;99.90
25248;DHT22;13191;47.472;11.214;2023-04-25T14:10:14;7.70;99.90
25248;DHT22;13191;47.472;11.214;2023-04-25T14:12:39;7.60;99.90
25248;DHT22;13191;47.472;11.214;2023-04-25T14:15:05;7.70;99.90
25248;DHT22;13191;47.472;11.214;2023-04-25T14:17:31;7.80;99.90
25248;DHT22;13191;47.472;11.214;2023-04-25T14:19:56;7.90;99.90
25248;DHT22;13191;47.472;11.214;2023-04-25T14:22:21;7.80;99.90
25248;DHT22;13191;47.472;11.214;2023-04-25T14:24:48;7.50;99.90
25248;DHT22;13191;47.472;11.214;2023-04-25T14:27:14;7.40;99.90
25248;DHT22;13191;47.472;11.214;2023-04-25T14:29:39;7.30;99.90
25248;DHT22;13191;47.472;11.214;2023-04-25T14:32:05;7.00;99.90
25248;DHT22;13191;47.472;11.214;2023-04-25T14:34:31;7.10;99.90
25248;DHT22;13191;47.472;11.214;2023-04-25T14:36:56;7.00;99.90
25248;DHT22;13191;47.472;11.214;2023-04-25T14:39:22;7.00;99.90
25248;DHT22;13191;47.472;11.214;2023-04-25T14:41:49;7.00;99.90
25248;DHT22;13191;47.472;11.214;2023-04-25T14:44:14;7.10;99.90
25248;DHT22;13191;47.472;11.214;2023-04-25T14:46:41;7.10;99.90
25248;DHT22;13191;47.472;11.214;2023-04-25T14:49:07;7.30;99.90
25248;DHT22;13191;47.472;11.214;2023-04-25T14:51:33;7.80;99.90
25248;DHT22;13191;47.472;11.214;2023-04-25T14:53:58;7.90;99.90
25248;DHT22;13191;47.472;11.214;2023-04-25T14:56:24;8.10;99.90
25248;DHT22;13191;47.472;11.214;2023-04-25T14:58:49;8.50;99.90
25248;DHT22;13191;47.472;11.214;2023-04-25T15:01:15;9.00;99.90
25248;DHT22;13191;47.472;11.214;2023-04-25T15:03:41;8.90;99.90
25248;DHT22;13191;47.472;11.214;2023-04-25T15:06:07;8.80;99.90
25248;DHT22;13191;47.472;11.214;2023-04-25T15:08:33;8.70;99.90
25248;DHT22;13191;47.472;11.214;2023-04-25T15:11:00;8.60;99.90
25248;DHT22;13191;47.472;11.214;2023-04-25T15:13:25;8.40;99.90
25248;DHT22;13191;47.472;11.214;2023-04-25T15:15:51;8.20;99.90
25248;DHT22;13191;47.472;11.214;2023-04-25T15:18:22;7.80;99.90
25248;DHT22;13191;47.472;11.214;2023-04-25T15:20:53;7.60;99.90
25248;DHT22;13191;47.472;11.214;2023-04-25T15:23:18;7.30;99.90
25248;DHT22;13191;47.472;11.214;2023-04-25T15:28:10;6.60;99.90
25248;DHT22;13191;47.472;11.214;2023-04-25T16:11:59;5.30;99.90
25248;DHT22;13191;47.472;11.214;2023-04-25T16:14:25;5.40;99.90
25248;DHT22;13191;47.472;11.214;2023-04-25T16:16:50;5.50;99.90
25248;DHT22;13191;47.472;11.214;2023-04-25T16:19:16;5.50;99.90